Frontier Kotobuki — 3EXC5 — position and weather

sailwx.info

Track history (hours):
 
Tides and Currents Weather Stations Pressure Air Temp Water Temp Dewpoint Dewpoint Depression Visibility Wind Speed Wind Dir Waves Ship Positions

Frontier Kotobuki

Last reported at 2015-May-07 23:04 UTC. Time now 2015-May-23 02:45 UTC.
Position S 34°51' E 019°15'.
Warning: this ship's position is 15 days out of date.

Length 290 m; draft 17.6 m.

Type: Cargo ship. MMSI: 355036000.

Date/timePositionNaut miles runAvg speedWind from/ knotsBaromVisibWave heightAir tempDewpointWater temp
2015-May-07 23:04S 34°51' E 019°15'1810.2
2015-May-07 21:20S 34°43' E 018°56'1810.0
2015-May-07 19:33S 34°35' E 018°37'10 9.7
2015-May-07 18:32S 34°30' E 018°26'9 9.3
2015-May-07 17:33S 34°26' E 018°16'11 8.6
2015-May-07 16:17S 34°19' E 018°06'70 1.4
2015-May-05 15:25S 33°10' E 017°49'21 6.8
2015-May-05 12:22S 33°30' E 017°57'6212.1
2015-May-05 07:13S 34°28' E 018°24'3412.4
2015-May-05 04:28S 34°43' E 019°01'44911.4
2015-May-03 13:13S 33°43' E 028°00'1013.1
2015-May-03 12:28S 33°40' E 028°11'1112.3
2015-May-03 11:32S 33°37' E 028°24'  
Track history (hours):
 
Tides and Currents Weather Stations Pressure Air Temp Water Temp Dewpoint Dewpoint Depression Visibility Wind Speed Wind Dir Waves Ship Positions

Frontier Kotobuki

Last reported at 2015-May-07 23:04 UTC. Time now 2015-May-23 02:45 UTC.
Position S 34°51' E 019°15'.
Warning: this ship's position is 15 days out of date.

Length 290 m; draft 17.6 m.

Type: Cargo ship. MMSI: 355036000.

Date/timePositionNaut miles runAvg speedWind from/ knotsBaromVisibWave heightAir tempDewpointWater temp
2015-May-07 23:04S 34°51' E 019°15'1810.2
2015-May-07 21:20S 34°43' E 018°56'1810.0
2015-May-07 19:33S 34°35' E 018°37'10 9.7
2015-May-07 18:32S 34°30' E 018°26'9 9.3
2015-May-07 17:33S 34°26' E 018°16'11 8.6
2015-May-07 16:17S 34°19' E 018°06'70 1.4
2015-May-05 15:25S 33°10' E 017°49'21 6.8
2015-May-05 12:22S 33°30' E 017°57'6212.1
2015-May-05 07:13S 34°28' E 018°24'3412.4
2015-May-05 04:28S 34°43' E 019°01'44911.4
2015-May-03 13:13S 33°43' E 028°00'1013.1
2015-May-03 12:28S 33°40' E 028°11'1112.3
2015-May-03 11:32S 33°37' E 028°24'  

Dump ship's entire track history